sensor_id;sensor_type;location;lat;lon;timestamp;temperature;humidity
22974;DHT22;11653;50.848;4.584;2024-03-08T00:01:35;6.60;99.90
22974;DHT22;11653;50.848;4.584;2024-03-08T00:04:01;6.50;99.90
22974;DHT22;11653;50.848;4.584;2024-03-08T00:06:27;6.40;99.90
22974;DHT22;11653;50.848;4.584;2024-03-08T00:08:52;6.40;99.90
22974;DHT22;11653;50.848;4.584;2024-03-08T00:11:18;6.40;99.90
22974;DHT22;11653;50.848;4.584;2024-03-08T00:13:44;6.50;99.90
22974;DHT22;11653;50.848;4.584;2024-03-08T00:16:10;6.50;99.90
22974;DHT22;11653;50.848;4.584;2024-03-08T00:18:36;6.40;99.90
22974;DHT22;11653;50.848;4.584;2024-03-08T00:21:02;6.30;99.90
22974;DHT22;11653;50.848;4.584;2024-03-08T00:23:27;6.30;99.90
22974;DHT22;11653;50.848;4.584;2024-03-08T00:25:53;6.20;99.90
22974;DHT22;11653;50.848;4.584;2024-03-08T00:28:21;6.20;99.90
22974;DHT22;11653;50.848;4.584;2024-03-08T00:30:47;6.10;99.90
22974;DHT22;11653;50.848;4.584;2024-03-08T00:33:12;6.10;99.90
22974;DHT22;11653;50.848;4.584;2024-03-08T00:35:38;6.20;99.90
22974;DHT22;11653;50.848;4.584;2024-03-08T00:38:06;6.20;99.90
22974;DHT22;11653;50.848;4.584;2024-03-08T00:40:31;6.10;99.90
22974;DHT22;11653;50.848;4.584;2024-03-08T00:42:57;6.00;99.90
22974;DHT22;11653;50.848;4.584;2024-03-08T00:45:22;6.10;99.90
22974;DHT22;11653;50.848;4.584;2024-03-08T00:47:49;6.10;99.90
22974;DHT22;11653;50.848;4.584;2024-03-08T00:50:14;6.00;99.90
22974;DHT22;11653;50.848;4.584;2024-03-08T00:52:40;5.90;99.90
22974;DHT22;11653;50.848;4.584;2024-03-08T00:55:11;5.70;99.90
22974;DHT22;11653;50.848;4.584;2024-03-08T00:57:37;5.70;99.90
22974;DHT22;11653;50.848;4.584;2024-03-08T01:00:06;5.90;99.90
22974;DHT22;11653;50.848;4.584;2024-03-08T01:02:41;5.80;99.90
22974;DHT22;11653;50.848;4.584;2024-03-08T01:05:07;5.70;99.90
22974;DHT22;11653;50.848;4.584;2024-03-08T01:07:34;5.80;99.90
22974;DHT22;11653;50.848;4.584;2024-03-08T01:10:01;5.90;99.90
22974;DHT22;11653;50.848;4.584;2024-03-08T01:12:27;5.90;99.90
22974;DHT22;11653;50.848;4.584;2024-03-08T01:14:53;5.80;99.90
22974;DHT22;11653;50.848;4.584;2024-03-08T01:17:19;5.70;99.90
22974;DHT22;11653;50.848;4.584;2024-03-08T01:19:44;5.70;99.90
22974;DHT22;11653;50.848;4.584;2024-03-08T01:22:10;5.70;99.90
22974;DHT22;11653;50.848;4.584;2024-03-08T01:24:36;5.70;99.90
22974;DHT22;11653;50.848;4.584;2024-03-08T01:27:02;5.70;99.90
22974;DHT22;11653;50.848;4.584;2024-03-08T01:29:28;5.80;99.90
22974;DHT22;11653;50.848;4.584;2024-03-08T01:31:57;5.60;99.90
22974;DHT22;11653;50.848;4.584;2024-03-08T01:34:25;5.50;99.90
22974;DHT22;11653;50.848;4.584;2024-03-08T01:36:54;5.40;99.90
22974;DHT22;11653;50.848;4.584;2024-03-08T01:39:21;5.50;99.90
22974;DHT22;11653;50.848;4.584;2024-03-08T01:41:47;5.50;99.90
22974;DHT22;11653;50.848;4.584;2024-03-08T01:44:13;5.50;99.90
22974;DHT22;11653;50.848;4.584;2024-03-08T01:46:44;5.60;99.90
22974;DHT22;11653;50.848;4.584;2024-03-08T01:49:10;5.50;99.90
22974;DHT22;11653;50.848;4.584;2024-03-08T01:51:37;5.50;99.90
22974;DHT22;11653;50.848;4.584;2024-03-08T01:54:04;5.50;99.90
22974;DHT22;11653;50.848;4.584;2024-03-08T01:56:30;5.60;99.90
22974;DHT22;11653;50.848;4.584;2024-03-08T01:58:57;5.50;99.90
22974;DHT22;11653;50.848;4.584;2024-03-08T02:01:24;5.50;99.90
22974;DHT22;11653;50.848;4.584;2024-03-08T02:03:50;5.30;99.90
22974;DHT22;11653;50.848;4.584;2024-03-08T02:06:16;5.20;99.90
22974;DHT22;11653;50.848;4.584;2024-03-08T02:08:43;5.10;99.90
22974;DHT22;11653;50.848;4.584;2024-03-08T02:11:09;5.20;99.90
22974;DHT22;11653;50.848;4.584;2024-03-08T02:13:35;5.10;99.90
22974;DHT22;11653;50.848;4.584;2024-03-08T02:16:01;5.20;99.90
22974;DHT22;11653;50.848;4.584;2024-03-08T02:18:29;5.10;99.90
22974;DHT22;11653;50.848;4.584;2024-03-08T02:20:56;5.00;99.90
22974;DHT22;11653;50.848;4.584;2024-03-08T02:23:22;5.00;99.90
22974;DHT22;11653;50.848;4.584;2024-03-08T02:25:50;5.10;99.90
22974;DHT22;11653;50.848;4.584;2024-03-08T02:28:16;4.90;99.90
22974;DHT22;11653;50.848;4.584;2024-03-08T02:30:46;4.90;99.90
22974;DHT22;11653;50.848;4.584;2024-03-08T02:33:16;5.00;99.90
22974;DHT22;11653;50.848;4.584;2024-03-08T02:35:43;4.90;99.90
22974;DHT22;11653;50.848;4.584;2024-03-08T02:38:19;4.90;99.90
22974;DHT22;11653;50.848;4.584;2024-03-08T02:40:50;4.90;99.90
22974;DHT22;11653;50.848;4.584;2024-03-08T02:43:17;4.80;99.90
22974;DHT22;11653;50.848;4.584;2024-03-08T02:45:43;4.80;99.90
22974;DHT22;11653;50.848;4.584;2024-03-08T02:48:13;4.60;99.90
22974;DHT22;11653;50.848;4.584;2024-03-08T02:50:39;4.50;99.90
22974;DHT22;11653;50.848;4.584;2024-03-08T02:53:13;4.60;99.90
22974;DHT22;11653;50.848;4.584;2024-03-08T02:55:40;4.50;99.90
22974;DHT22;11653;50.848;4.584;2024-03-08T02:58:06;4.50;99.90
22974;DHT22;11653;50.848;4.584;2024-03-08T03:00:35;4.50;99.90
22974;DHT22;11653;50.848;4.584;2024-03-08T03:03:01;4.50;99.90
22974;DHT22;11653;50.848;4.584;2024-03-08T03:05:29;4.40;99.90
22974;DHT22;11653;50.848;4.584;2024-03-08T03:07:57;4.40;99.90
22974;DHT22;11653;50.848;4.584;2024-03-08T03:10:24;4.20;99.90
22974;DHT22;11653;50.848;4.584;2024-03-08T03:12:49;4.30;99.90
22974;DHT22;11653;50.848;4.584;2024-03-08T03:15:15;4.30;99.90
22974;DHT22;11653;50.848;4.584;2024-03-08T03:17:48;4.20;99.90
22974;DHT22;11653;50.848;4.584;2024-03-08T03:20:14;4.20;99.90
22974;DHT22;11653;50.848;4.584;2024-03-08T03:22:41;4.10;99.90
22974;DHT22;11653;50.848;4.584;2024-03-08T03:25:08;4.00;99.90
22974;DHT22;11653;50.848;4.584;2024-03-08T03:27:35;4.10;99.90
22974;DHT22;11653;50.848;4.584;2024-03-08T03:30:01;4.00;99.90
22974;DHT22;11653;50.848;4.584;2024-03-08T03:32:49;3.90;99.90
22974;DHT22;11653;50.848;4.584;2024-03-08T03:35:17;4.00;99.90
22974;DHT22;11653;50.848;4.584;2024-03-08T03:37:42;4.00;99.90
22974;DHT22;11653;50.848;4.584;2024-03-08T03:40:11;4.00;99.90
22974;DHT22;11653;50.848;4.584;2024-03-08T03:42:38;4.10;99.90
22974;DHT22;11653;50.848;4.584;2024-03-08T03:45:06;4.10;99.90
22974;DHT22;11653;50.848;4.584;2024-03-08T03:47:31;4.00;99.90
22974;DHT22;11653;50.848;4.584;2024-03-08T03:49:57;4.10;99.90
22974;DHT22;11653;50.848;4.584;2024-03-08T03:52:27;4.00;99.90
22974;DHT22;11653;50.848;4.584;2024-03-08T03:54:53;4.10;99.90
22974;DHT22;11653;50.848;4.584;2024-03-08T03:57:20;4.00;99.90
22974;DHT22;11653;50.848;4.584;2024-03-08T03:59:48;4.00;99.90
22974;DHT22;11653;50.848;4.584;2024-03-08T04:02:14;3.90;99.90
22974;DHT22;11653;50.848;4.584;2024-03-08T04:04:40;3.90;99.90
22974;DHT22;11653;50.848;4.584;2024-03-08T04:07:06;3.90;99.90
22974;DHT22;11653;50.848;4.584;2024-03-08T04:09:32;3.80;99.90
22974;DHT22;11653;50.848;4.584;2024-03-08T04:12:00;3.70;99.90
22974;DHT22;11653;50.848;4.584;2024-03-08T04:14:26;3.70;99.90
22974;DHT22;11653;50.848;4.584;2024-03-08T04:16:52;3.80;99.90
22974;DHT22;11653;50.848;4.584;2024-03-08T04:19:18;3.70;99.90
22974;DHT22;11653;50.848;4.584;2024-03-08T04:21:44;3.70;99.90
22974;DHT22;11653;50.848;4.584;2024-03-08T04:24:10;3.70;99.90
22974;DHT22;11653;50.848;4.584;2024-03-08T04:26:36;3.70;99.90
22974;DHT22;11653;50.848;4.584;2024-03-08T04:29:02;3.80;99.90
22974;DHT22;11653;50.848;4.584;2024-03-08T04:31:28;3.70;99.90
22974;DHT22;11653;50.848;4.584;2024-03-08T04:33:57;3.70;99.90
22974;DHT22;11653;50.848;4.584;2024-03-08T04:36:23;3.70;99.90
22974;DHT22;11653;50.848;4.584;2024-03-08T04:38:50;3.60;99.90
22974;DHT22;11653;50.848;4.584;2024-03-08T04:41:17;3.70;99.90
22974;DHT22;11653;50.848;4.584;2024-03-08T04:43:43;3.70;99.90
22974;DHT22;11653;50.848;4.584;2024-03-08T04:46:09;3.60;99.90
22974;DHT22;11653;50.848;4.584;2024-03-08T04:48:35;3.50;99.90
22974;DHT22;11653;50.848;4.584;2024-03-08T04:51:03;3.60;99.90
22974;DHT22;11653;50.848;4.584;2024-03-08T04:53:29;3.60;99.90
22974;DHT22;11653;50.848;4.584;2024-03-08T04:55:55;3.50;99.90
22974;DHT22;11653;50.848;4.584;2024-03-08T04:58:23;3.60;99.90
22974;DHT22;11653;50.848;4.584;2024-03-08T05:00:49;3.60;99.90
22974;DHT22;11653;50.848;4.584;2024-03-08T05:03:16;3.60;99.90
22974;DHT22;11653;50.848;4.584;2024-03-08T05:05:41;3.60;99.90
22974;DHT22;11653;50.848;4.584;2024-03-08T05:08:07;3.60;99.90
22974;DHT22;11653;50.848;4.584;2024-03-08T05:10:33;3.60;99.90
22974;DHT22;11653;50.848;4.584;2024-03-08T05:12:58;3.70;99.90
22974;DHT22;11653;50.848;4.584;2024-03-08T05:15:24;3.70;99.90
22974;DHT22;11653;50.848;4.584;2024-03-08T05:17:50;3.70;99.90
22974;DHT22;11653;50.848;4.584;2024-03-08T05:20:15;3.70;99.90
22974;DHT22;11653;50.848;4.584;2024-03-08T05:22:42;3.70;99.90
22974;DHT22;11653;50.848;4.584;2024-03-08T05:25:08;3.60;99.90
22974;DHT22;11653;50.848;4.584;2024-03-08T05:27:35;3.50;99.90
22974;DHT22;11653;50.848;4.584;2024-03-08T05:30:02;3.50;99.90
22974;DHT22;11653;50.848;4.584;2024-03-08T05:32:29;3.60;99.90
22974;DHT22;11653;50.848;4.584;2024-03-08T05:34:55;3.50;99.90
22974;DHT22;11653;50.848;4.584;2024-03-08T05:37:21;3.30;99.90
22974;DHT22;11653;50.848;4.584;2024-03-08T05:39:47;3.30;99.90
22974;DHT22;11653;50.848;4.584;2024-03-08T05:42:13;3.30;99.90
22974;DHT22;11653;50.848;4.584;2024-03-08T05:44:38;3.30;99.90
22974;DHT22;11653;50.848;4.584;2024-03-08T05:47:06;3.30;99.90
22974;DHT22;11653;50.848;4.584;2024-03-08T05:49:32;3.30;99.90
22974;DHT22;11653;50.848;4.584;2024-03-08T05:51:59;3.30;99.90
22974;DHT22;11653;50.848;4.584;2024-03-08T05:54:25;3.30;99.90
22974;DHT22;11653;50.848;4.584;2024-03-08T05:56:52;3.30;99.90
22974;DHT22;11653;50.848;4.584;2024-03-08T05:59:18;3.30;99.90
22974;DHT22;11653;50.848;4.584;2024-03-08T06:01:45;3.40;99.90
22974;DHT22;11653;50.848;4.584;2024-03-08T06:04:12;3.40;99.90
22974;DHT22;11653;50.848;4.584;2024-03-08T06:06:38;3.40;99.90
22974;DHT22;11653;50.848;4.584;2024-03-08T06:09:03;3.40;99.90
22974;DHT22;11653;50.848;4.584;2024-03-08T06:11:36;3.50;99.90
22974;DHT22;11653;50.848;4.584;2024-03-08T06:14:03;3.40;99.90
22974;DHT22;11653;50.848;4.584;2024-03-08T06:16:29;3.40;99.90
22974;DHT22;11653;50.848;4.584;2024-03-08T06:18:56;3.40;99.90
22974;DHT22;11653;50.848;4.584;2024-03-08T06:21:23;3.40;99.90
22974;DHT22;11653;50.848;4.584;2024-03-08T06:23:52;3.40;99.90
22974;DHT22;11653;50.848;4.584;2024-03-08T06:26:20;3.40;99.90
22974;DHT22;11653;50.848;4.584;2024-03-08T06:28:47;3.60;99.90
22974;DHT22;11653;50.848;4.584;2024-03-08T06:31:13;3.50;99.90
22974;DHT22;11653;50.848;4.584;2024-03-08T06:33:40;3.30;99.90
22974;DHT22;11653;50.848;4.584;2024-03-08T06:36:06;3.30;99.90
22974;DHT22;11653;50.848;4.584;2024-03-08T06:38:32;3.50;99.90
22974;DHT22;11653;50.848;4.584;2024-03-08T06:40:58;3.50;99.90
22974;DHT22;11653;50.848;4.584;2024-03-08T06:43:24;3.60;99.90
22974;DHT22;11653;50.848;4.584;2024-03-08T06:45:55;3.80;99.90
22974;DHT22;11653;50.848;4.584;2024-03-08T06:48:21;3.80;99.90
22974;DHT22;11653;50.848;4.584;2024-03-08T06:50:47;3.90;99.90
22974;DHT22;11653;50.848;4.584;2024-03-08T06:53:13;4.10;99.90
22974;DHT22;11653;50.848;4.584;2024-03-08T06:55:39;4.40;99.90
22974;DHT22;11653;50.848;4.584;2024-03-08T06:58:05;4.60;99.90
22974;DHT22;11653;50.848;4.584;2024-03-08T07:00:33;4.80;99.90
22974;DHT22;11653;50.848;4.584;2024-03-08T07:02:59;4.80;99.90
22974;DHT22;11653;50.848;4.584;2024-03-08T07:05:29;5.00;99.90
22974;DHT22;11653;50.848;4.584;2024-03-08T07:07:55;5.20;99.90
22974;DHT22;11653;50.848;4.584;2024-03-08T07:10:22;5.30;99.90
22974;DHT22;11653;50.848;4.584;2024-03-08T07:12:50;5.50;99.90
22974;DHT22;11653;50.848;4.584;2024-03-08T07:15:16;5.70;99.90
22974;DHT22;11653;50.848;4.584;2024-03-08T07:17:45;6.00;99.90
22974;DHT22;11653;50.848;4.584;2024-03-08T07:20:11;6.30;99.90
22974;DHT22;11653;50.848;4.584;2024-03-08T07:22:39;6.20;99.90
22974;DHT22;11653;50.848;4.584;2024-03-08T07:25:08;6.40;99.90
22974;DHT22;11653;50.848;4.584;2024-03-08T07:27:53;6.60;99.90
22974;DHT22;11653;50.848;4.584;2024-03-08T07:30:23;6.90;99.90
22974;DHT22;11653;50.848;4.584;2024-03-08T07:33:21;7.10;99.90
22974;DHT22;11653;50.848;4.584;2024-03-08T07:35:48;7.40;99.90
22974;DHT22;11653;50.848;4.584;2024-03-08T07:38:15;7.50;99.90
22974;DHT22;11653;50.848;4.584;2024-03-08T07:40:42;8.10;99.90
22974;DHT22;11653;50.848;4.584;2024-03-08T07:43:11;8.10;99.90
22974;DHT22;11653;50.848;4.584;2024-03-08T07:45:37;7.80;99.90
22974;DHT22;11653;50.848;4.584;2024-03-08T07:48:04;7.60;99.90
22974;DHT22;11653;50.848;4.584;2024-03-08T07:50:37;7.60;99.90
22974;DHT22;11653;50.848;4.584;2024-03-08T07:53:04;7.70;99.90
22974;DHT22;11653;50.848;4.584;2024-03-08T07:55:32;7.90;99.90
22974;DHT22;11653;50.848;4.584;2024-03-08T07:57:58;7.90;99.90
22974;DHT22;11653;50.848;4.584;2024-03-08T08:00:24;8.00;99.90
22974;DHT22;11653;50.848;4.584;2024-03-08T08:02:53;8.20;99.90
22974;DHT22;11653;50.848;4.584;2024-03-08T08:05:19;8.70;99.90
22974;DHT22;11653;50.848;4.584;2024-03-08T08:07:45;9.00;99.90
22974;DHT22;11653;50.848;4.584;2024-03-08T08:10:14;9.40;99.90
22974;DHT22;11653;50.848;4.584;2024-03-08T08:12:50;10.00;99.90
22974;DHT22;11653;50.848;4.584;2024-03-08T08:15:19;10.00;99.90
22974;DHT22;11653;50.848;4.584;2024-03-08T08:17:45;9.80;99.90
22974;DHT22;11653;50.848;4.584;2024-03-08T08:20:11;9.90;99.90
22974;DHT22;11653;50.848;4.584;2024-03-08T08:22:42;10.20;99.90
22974;DHT22;11653;50.848;4.584;2024-03-08T08:25:11;10.10;99.90
22974;DHT22;11653;50.848;4.584;2024-03-08T08:27:38;9.90;99.90
22974;DHT22;11653;50.848;4.584;2024-03-08T08:30:11;9.90;99.90
22974;DHT22;11653;50.848;4.584;2024-03-08T08:32:37;9.90;99.90
22974;DHT22;11653;50.848;4.584;2024-03-08T08:35:05;10.00;99.90
22974;DHT22;11653;50.848;4.584;2024-03-08T08:37:32;9.90;99.90
22974;DHT22;11653;50.848;4.584;2024-03-08T08:39:58;10.30;99.90
22974;DHT22;11653;50.848;4.584;2024-03-08T08:42:24;10.60;99.90
22974;DHT22;11653;50.848;4.584;2024-03-08T08:44:50;10.50;99.90
22974;DHT22;11653;50.848;4.584;2024-03-08T08:47:17;10.60;99.90
22974;DHT22;11653;50.848;4.584;2024-03-08T08:49:44;11.20;99.90
22974;DHT22;11653;50.848;4.584;2024-03-08T08:52:12;11.20;99.90
22974;DHT22;11653;50.848;4.584;2024-03-08T08:54:38;11.10;99.90
22974;DHT22;11653;50.848;4.584;2024-03-08T08:57:04;10.90;99.90
22974;DHT22;11653;50.848;4.584;2024-03-08T08:59:34;10.60;99.90
22974;DHT22;11653;50.848;4.584;2024-03-08T09:02:04;10.60;99.90
22974;DHT22;11653;50.848;4.584;2024-03-08T09:04:30;11.30;99.90
22974;DHT22;11653;50.848;4.584;2024-03-08T09:06:58;11.20;99.90
22974;DHT22;11653;50.848;4.584;2024-03-08T09:09:24;10.80;99.90
22974;DHT22;11653;50.848;4.584;2024-03-08T09:11:51;10.60;99.90
22974;DHT22;11653;50.848;4.584;2024-03-08T09:14:17;10.30;99.90
22974;DHT22;11653;50.848;4.584;2024-03-08T09:16:43;10.10;99.90
22974;DHT22;11653;50.848;4.584;2024-03-08T09:19:08;10.60;99.90
22974;DHT22;11653;50.848;4.584;2024-03-08T09:21:36;11.10;99.90
22974;DHT22;11653;50.848;4.584;2024-03-08T09:24:02;11.80;99.90
22974;DHT22;11653;50.848;4.584;2024-03-08T09:26:28;12.00;99.90
22974;DHT22;11653;50.848;4.584;2024-03-08T09:28:54;11.40;99.90
22974;DHT22;11653;50.848;4.584;2024-03-08T09:31:22;11.20;99.90
22974;DHT22;11653;50.848;4.584;2024-03-08T09:33:48;11.20;99.90
22974;DHT22;11653;50.848;4.584;2024-03-08T09:36:14;12.00;99.90
22974;DHT22;11653;50.848;4.584;2024-03-08T09:38:40;12.00;99.90
22974;DHT22;11653;50.848;4.584;2024-03-08T09:41:06;12.20;99.90
22974;DHT22;11653;50.848;4.584;2024-03-08T09:43:31;11.90;99.90
22974;DHT22;11653;50.848;4.584;2024-03-08T09:45:58;12.30;99.90
22974;DHT22;11653;50.848;4.584;2024-03-08T09:48:25;12.10;99.90
22974;DHT22;11653;50.848;4.584;2024-03-08T09:50:51;12.50;99.90
22974;DHT22;11653;50.848;4.584;2024-03-08T09:53:17;12.60;99.90
22974;DHT22;11653;50.848;4.584;2024-03-08T09:55:43;13.10;99.30
22974;DHT22;11653;50.848;4.584;2024-03-08T09:58:15;13.10;98.30
22974;DHT22;11653;50.848;4.584;2024-03-08T10:01:01;13.00;98.70
22974;DHT22;11653;50.848;4.584;2024-03-08T10:03:30;13.10;97.60
22974;DHT22;11653;50.848;4.584;2024-03-08T10:05:57;12.80;98.60
22974;DHT22;11653;50.848;4.584;2024-03-08T10:08:29;12.80;98.90
22974;DHT22;11653;50.848;4.584;2024-03-08T10:10:58;13.00;99.00
22974;DHT22;11653;50.848;4.584;2024-03-08T10:13:25;13.00;98.90
22974;DHT22;11653;50.848;4.584;2024-03-08T10:15:53;13.10;98.00
22974;DHT22;11653;50.848;4.584;2024-03-08T10:18:19;13.00;98.50
22974;DHT22;11653;50.848;4.584;2024-03-08T10:20:48;12.90;98.20
22974;DHT22;11653;50.848;4.584;2024-03-08T10:23:29;13.00;98.50
22974;DHT22;11653;50.848;4.584;2024-03-08T10:25:55;13.10;98.00
22974;DHT22;11653;50.848;4.584;2024-03-08T10:28:23;13.00;98.50
22974;DHT22;11653;50.848;4.584;2024-03-08T10:30:56;13.40;97.40
22974;DHT22;11653;50.848;4.584;2024-03-08T10:33:23;12.90;97.40
22974;DHT22;11653;50.848;4.584;2024-03-08T10:35:49;13.20;98.40
22974;DHT22;11653;50.848;4.584;2024-03-08T10:38:16;13.20;97.60
22974;DHT22;11653;50.848;4.584;2024-03-08T10:40:44;13.60;97.00
22974;DHT22;11653;50.848;4.584;2024-03-08T10:43:24;14.30;96.50
22974;DHT22;11653;50.848;4.584;2024-03-08T10:45:58;14.30;95.50
22974;DHT22;11653;50.848;4.584;2024-03-08T10:48:31;13.80;96.20
22974;DHT22;11653;50.848;4.584;2024-03-08T10:51:02;13.60;96.50
22974;DHT22;11653;50.848;4.584;2024-03-08T10:53:28;14.00;96.90
22974;DHT22;11653;50.848;4.584;2024-03-08T10:55:57;13.90;95.80
22974;DHT22;11653;50.848;4.584;2024-03-08T10:58:25;13.60;96.10
22974;DHT22;11653;50.848;4.584;2024-03-08T11:00:57;13.80;96.40
22974;DHT22;11653;50.848;4.584;2024-03-08T11:06:15;13.40;96.80
22974;DHT22;11653;50.848;4.584;2024-03-08T11:08:41;12.80;97.50
22974;DHT22;11653;50.848;4.584;2024-03-08T11:11:24;12.50;98.40
22974;DHT22;11653;50.848;4.584;2024-03-08T11:13:53;12.30;99.30
22974;DHT22;11653;50.848;4.584;2024-03-08T11:18:58;13.10;98.60
22974;DHT22;11653;50.848;4.584;2024-03-08T11:21:30;12.80;97.60
22974;DHT22;11653;50.848;4.584;2024-03-08T11:24:10;13.10;98.40
22974;DHT22;11653;50.848;4.584;2024-03-08T11:26:37;13.20;97.90
22974;DHT22;11653;50.848;4.584;2024-03-08T11:32:15;13.50;96.90
22974;DHT22;11653;50.848;4.584;2024-03-08T11:34:46;13.50;97.60
22974;DHT22;11653;50.848;4.584;2024-03-08T11:37:22;13.10;97.90
22974;DHT22;11653;50.848;4.584;2024-03-08T11:39:51;13.00;98.20
22974;DHT22;11653;50.848;4.584;2024-03-08T11:42:18;13.10;98.40
22974;DHT22;11653;50.848;4.584;2024-03-08T11:44:48;13.60;98.40
22974;DHT22;11653;50.848;4.584;2024-03-08T11:47:14;14.00;96.00
22974;DHT22;11653;50.848;4.584;2024-03-08T11:49:41;13.70;96.70
22974;DHT22;11653;50.848;4.584;2024-03-08T11:52:13;13.90;96.10
22974;DHT22;11653;50.848;4.584;2024-03-08T11:54:57;13.90;96.70
22974;DHT22;11653;50.848;4.584;2024-03-08T11:57:24;14.30;95.90
22974;DHT22;11653;50.848;4.584;2024-03-08T11:59:53;14.20;96.20
22974;DHT22;11653;50.848;4.584;2024-03-08T12:02:19;14.90;95.30
22974;DHT22;11653;50.848;4.584;2024-03-08T12:04:45;15.30;94.70
22974;DHT22;11653;50.848;4.584;2024-03-08T12:07:14;15.00;94.60
22974;DHT22;11653;50.848;4.584;2024-03-08T12:09:44;15.00;94.00
22974;DHT22;11653;50.848;4.584;2024-03-08T12:12:30;14.40;94.90
22974;DHT22;11653;50.848;4.584;2024-03-08T12:14:57;14.30;95.10
22974;DHT22;11653;50.848;4.584;2024-03-08T12:17:23;14.40;95.40
22974;DHT22;11653;50.848;4.584;2024-03-08T12:19:49;14.70;94.90
22974;DHT22;11653;50.848;4.584;2024-03-08T12:22:15;14.70;94.10
22974;DHT22;11653;50.848;4.584;2024-03-08T12:24:41;14.70;94.60
22974;DHT22;11653;50.848;4.584;2024-03-08T12:27:20;14.40;95.70
22974;DHT22;11653;50.848;4.584;2024-03-08T12:29:46;14.20;94.70
22974;DHT22;11653;50.848;4.584;2024-03-08T12:32:12;14.10;95.30
22974;DHT22;11653;50.848;4.584;2024-03-08T12:34:38;13.80;96.30
22974;DHT22;11653;50.848;4.584;2024-03-08T12:37:04;13.50;96.30
22974;DHT22;11653;50.848;4.584;2024-03-08T12:39:32;13.70;97.10
22974;DHT22;11653;50.848;4.584;2024-03-08T12:41:58;13.90;96.80
22974;DHT22;11653;50.848;4.584;2024-03-08T12:44:24;14.00;96.70
22974;DHT22;11653;50.848;4.584;2024-03-08T12:46:51;14.20;96.50
22974;DHT22;11653;50.848;4.584;2024-03-08T12:49:17;14.30;95.40
22974;DHT22;11653;50.848;4.584;2024-03-08T12:51:46;14.50;95.60
22974;DHT22;11653;50.848;4.584;2024-03-08T12:54:12;14.70;95.50
22974;DHT22;11653;50.848;4.584;2024-03-08T12:56:38;15.00;95.90
22974;DHT22;11653;50.848;4.584;2024-03-08T12:59:06;14.90;94.80
22974;DHT22;11653;50.848;4.584;2024-03-08T13:01:33;14.80;94.80
22974;DHT22;11653;50.848;4.584;2024-03-08T13:03:59;14.50;95.30
22974;DHT22;11653;50.848;4.584;2024-03-08T13:06:28;14.40;95.70
22974;DHT22;11653;50.848;4.584;2024-03-08T13:08:56;14.80;96.60
22974;DHT22;11653;50.848;4.584;2024-03-08T13:11:26;14.90;95.50
22974;DHT22;11653;50.848;4.584;2024-03-08T13:13:52;14.70;95.00
22974;DHT22;11653;50.848;4.584;2024-03-08T13:16:18;14.60;95.70
22974;DHT22;11653;50.848;4.584;2024-03-08T13:18:45;14.60;96.30
22974;DHT22;11653;50.848;4.584;2024-03-08T13:21:14;14.80;96.00
22974;DHT22;11653;50.848;4.584;2024-03-08T13:23:41;14.50;95.60
22974;DHT22;11653;50.848;4.584;2024-03-08T13:26:11;14.20;96.10
22974;DHT22;11653;50.848;4.584;2024-03-08T13:28:48;13.40;97.40
22974;DHT22;11653;50.848;4.584;2024-03-08T13:31:22;13.20;98.60
22974;DHT22;11653;50.848;4.584;2024-03-08T13:33:50;13.00;99.60
22974;DHT22;11653;50.848;4.584;2024-03-08T13:36:23;12.80;99.60
22974;DHT22;11653;50.848;4.584;2024-03-08T13:38:50;12.90;99.90
22974;DHT22;11653;50.848;4.584;2024-03-08T13:41:16;12.80;99.80
22974;DHT22;11653;50.848;4.584;2024-03-08T13:43:46;12.80;99.90
22974;DHT22;11653;50.848;4.584;2024-03-08T13:46:13;12.90;99.90
22974;DHT22;11653;50.848;4.584;2024-03-08T13:48:39;13.10;99.90
22974;DHT22;11653;50.848;4.584;2024-03-08T13:51:05;12.90;99.90
22974;DHT22;11653;50.848;4.584;2024-03-08T13:53:36;12.80;99.90
22974;DHT22;11653;50.848;4.584;2024-03-08T13:56:02;12.70;99.80
22974;DHT22;11653;50.848;4.584;2024-03-08T13:58:28;12.80;99.90
22974;DHT22;11653;50.848;4.584;2024-03-08T14:00:54;12.80;99.90
22974;DHT22;11653;50.848;4.584;2024-03-08T14:03:21;12.70;99.90
22974;DHT22;11653;50.848;4.584;2024-03-08T14:05:46;12.70;99.90
22974;DHT22;11653;50.848;4.584;2024-03-08T14:08:12;12.70;99.90
22974;DHT22;11653;50.848;4.584;2024-03-08T14:10:39;12.80;99.90
22974;DHT22;11653;50.848;4.584;2024-03-08T14:13:05;12.90;99.90
22974;DHT22;11653;50.848;4.584;2024-03-08T14:15:32;13.00;99.90
22974;DHT22;11653;50.848;4.584;2024-03-08T14:17:58;13.00;99.90
22974;DHT22;11653;50.848;4.584;2024-03-08T14:20:25;13.00;99.90
22974;DHT22;11653;50.848;4.584;2024-03-08T14:22:54;12.90;99.90
22974;DHT22;11653;50.848;4.584;2024-03-08T14:25:21;13.00;99.90
22974;DHT22;11653;50.848;4.584;2024-03-08T14:27:50;13.00;99.90
22974;DHT22;11653;50.848;4.584;2024-03-08T14:30:19;13.00;99.90
22974;DHT22;11653;50.848;4.584;2024-03-08T14:33:04;13.20;99.90
22974;DHT22;11653;50.848;4.584;2024-03-08T14:35:40;13.10;99.90
22974;DHT22;11653;50.848;4.584;2024-03-08T14:38:06;13.00;99.90
22974;DHT22;11653;50.848;4.584;2024-03-08T14:40:37;12.90;99.90
22974;DHT22;11653;50.848;4.584;2024-03-08T14:43:03;13.10;99.90
22974;DHT22;11653;50.848;4.584;2024-03-08T14:45:30;13.10;99.90
22974;DHT22;11653;50.848;4.584;2024-03-08T14:47:56;13.10;99.90
22974;DHT22;11653;50.848;4.584;2024-03-08T14:50:24;13.10;99.80
22974;DHT22;11653;50.848;4.584;2024-03-08T14:52:51;13.10;99.90
22974;DHT22;11653;50.848;4.584;2024-03-08T14:55:21;13.20;99.90
22974;DHT22;11653;50.848;4.584;2024-03-08T14:57:51;13.20;99.90
22974;DHT22;11653;50.848;4.584;2024-03-08T15:00:19;13.30;99.90
22974;DHT22;11653;50.848;4.584;2024-03-08T15:02:59;13.30;99.90
22974;DHT22;11653;50.848;4.584;2024-03-08T15:05:25;13.20;99.90
22974;DHT22;11653;50.848;4.584;2024-03-08T15:07:57;13.10;99.90
22974;DHT22;11653;50.848;4.584;2024-03-08T15:10:26;13.10;99.90
22974;DHT22;11653;50.848;4.584;2024-03-08T15:12:54;13.20;99.90
22974;DHT22;11653;50.848;4.584;2024-03-08T15:15:21;13.20;99.90
22974;DHT22;11653;50.848;4.584;2024-03-08T15:17:49;13.00;99.90
22974;DHT22;11653;50.848;4.584;2024-03-08T15:20:16;12.90;99.90
22974;DHT22;11653;50.848;4.584;2024-03-08T15:22:49;12.90;99.90
22974;DHT22;11653;50.848;4.584;2024-03-08T15:25:16;12.80;99.90
22974;DHT22;11653;50.848;4.584;2024-03-08T15:27:55;12.90;99.90
22974;DHT22;11653;50.848;4.584;2024-03-08T15:30:21;12.90;99.90
22974;DHT22;11653;50.848;4.584;2024-03-08T15:32:54;12.80;99.90
22974;DHT22;11653;50.848;4.584;2024-03-08T15:35:25;12.80;99.90
22974;DHT22;11653;50.848;4.584;2024-03-08T15:37:51;12.70;99.90
22974;DHT22;11653;50.848;4.584;2024-03-08T15:40:18;12.70;99.90
22974;DHT22;11653;50.848;4.584;2024-03-08T15:42:59;12.60;99.90
22974;DHT22;11653;50.848;4.584;2024-03-08T15:45:25;12.60;99.90
22974;DHT22;11653;50.848;4.584;2024-03-08T15:47:54;12.60;99.90
22974;DHT22;11653;50.848;4.584;2024-03-08T15:50:20;12.60;99.90
22974;DHT22;11653;50.848;4.584;2024-03-08T15:52:49;12.60;99.90